sensor_id;sensor_type;location;lat;lon;timestamp;pressure;altitude;pressure_sealevel;temperature;humidity
11190;BME280;5651;50.926;4.718;2023-02-22T00:00:18;101365.88;;;5.48;100.00
11190;BME280;5651;50.926;4.718;2023-02-22T00:02:49;101375.41;;;5.51;100.00
11190;BME280;5651;50.926;4.718;2023-02-22T00:05:16;101364.28;;;5.53;100.00
11190;BME280;5651;50.926;4.718;2023-02-22T00:07:46;101374.72;;;5.58;100.00
11190;BME280;5651;50.926;4.718;2023-02-22T00:10:12;101378.94;;;5.53;100.00
11190;BME280;5651;50.926;4.718;2023-02-22T00:12:41;101374.59;;;5.52;100.00
11190;BME280;5651;50.926;4.718;2023-02-22T00:15:08;101370.28;;;5.52;100.00
11190;BME280;5651;50.926;4.718;2023-02-22T00:17:35;101367.69;;;5.52;100.00
11190;BME280;5651;50.926;4.718;2023-02-22T00:20:02;101377.25;;;5.55;100.00
11190;BME280;5651;50.926;4.718;2023-02-22T00:22:30;101378.97;;;5.56;100.00
11190;BME280;5651;50.926;4.718;2023-02-22T00:24:56;101377.31;;;5.58;100.00
11190;BME280;5651;50.926;4.718;2023-02-22T00:27:22;101373.91;;;5.59;100.00
11190;BME280;5651;50.926;4.718;2023-02-22T00:29:48;101363.22;;;5.45;100.00
11190;BME280;5651;50.926;4.718;2023-02-22T00:32:14;101369.19;;;5.43;100.00
11190;BME280;5651;50.926;4.718;2023-02-22T00:34:40;101373.28;;;5.34;100.00
11190;BME280;5651;50.926;4.718;2023-02-22T00:37:09;101371.63;;;5.36;100.00
11190;BME280;5651;50.926;4.718;2023-02-22T00:39:35;101366.34;;;5.33;100.00
11190;BME280;5651;50.926;4.718;2023-02-22T00:42:01;101370.66;;;5.33;100.00
11190;BME280;5651;50.926;4.718;2023-02-22T00:44:27;101370.69;;;5.34;100.00
11190;BME280;5651;50.926;4.718;2023-02-22T00:46:52;101369.88;;;5.37;100.00
11190;BME280;5651;50.926;4.718;2023-02-22T00:49:18;101372.41;;;5.34;100.00
11190;BME280;5651;50.926;4.718;2023-02-22T00:51:44;101364.69;;;5.35;100.00
11190;BME280;5651;50.926;4.718;2023-02-22T00:54:10;101360.34;;;5.34;100.00
11190;BME280;5651;50.926;4.718;2023-02-22T00:56:36;101362.13;;;5.37;100.00
11190;BME280;5651;50.926;4.718;2023-02-22T00:59:02;101362.09;;;5.35;100.00
11190;BME280;5651;50.926;4.718;2023-02-22T01:01:29;101361.31;;;5.38;100.00
11190;BME280;5651;50.926;4.718;2023-02-22T01:03:54;101349.28;;;5.38;100.00
11190;BME280;5651;50.926;4.718;2023-02-22T01:06:20;101355.31;;;5.39;100.00
11190;BME280;5651;50.926;4.718;2023-02-22T01:08:47;101349.28;;;5.38;100.00
11190;BME280;5651;50.926;4.718;2023-02-22T01:11:15;101343.22;;;5.38;100.00
11190;BME280;5651;50.926;4.718;2023-02-22T01:13:41;101345.06;;;5.42;100.00
11190;BME280;5651;50.926;4.718;2023-02-22T01:16:07;101340.72;;;5.41;100.00
11190;BME280;5651;50.926;4.718;2023-02-22T01:18:36;101334.63;;;5.39;100.00
11190;BME280;5651;50.926;4.718;2023-02-22T01:21:03;101335.41;;;5.35;100.00
11190;BME280;5651;50.926;4.718;2023-02-22T01:23:29;101336.97;;;5.30;100.00
11190;BME280;5651;50.926;4.718;2023-02-22T01:25:55;101329.88;;;5.21;100.00
11190;BME280;5651;50.926;4.718;2023-02-22T01:28:21;101325.25;;;5.07;100.00
11190;BME280;5651;50.926;4.718;2023-02-22T01:30:47;101325.28;;;5.09;100.00
11190;BME280;5651;50.926;4.718;2023-02-22T01:33:13;101321.75;;;5.05;100.00
11190;BME280;5651;50.926;4.718;2023-02-22T01:35:41;101325.09;;;5.01;100.00
11190;BME280;5651;50.926;4.718;2023-02-22T01:38:08;101324.03;;;4.93;100.00
11190;BME280;5651;50.926;4.718;2023-02-22T01:40:37;101324.84;;;4.92;100.00
11190;BME280;5651;50.926;4.718;2023-02-22T01:43:29;101308.38;;;4.87;100.00
11190;BME280;5651;50.926;4.718;2023-02-22T01:46:04;101316.84;;;4.83;100.00
11190;BME280;5651;50.926;4.718;2023-02-22T01:48:38;101319.19;;;4.73;100.00
11190;BME280;5651;50.926;4.718;2023-02-22T01:51:14;101318.34;;;4.74;100.00
11190;BME280;5651;50.926;4.718;2023-02-22T01:56:16;101309.63;;;4.69;100.00
11190;BME280;5651;50.926;4.718;2023-02-22T01:58:46;101302.69;;;4.68;100.00
11190;BME280;5651;50.926;4.718;2023-02-22T02:01:15;101301.91;;;4.71;100.00
11190;BME280;5651;50.926;4.718;2023-02-22T02:03:43;101295.91;;;4.72;100.00
11190;BME280;5651;50.926;4.718;2023-02-22T02:06:12;101292.34;;;4.67;100.00
11190;BME280;5651;50.926;4.718;2023-02-22T02:09:15;101291.44;;;4.66;100.00
11190;BME280;5651;50.926;4.718;2023-02-22T02:11:43;101287.97;;;4.64;100.00
11190;BME280;5651;50.926;4.718;2023-02-22T02:14:10;101287.13;;;4.65;100.00
11190;BME280;5651;50.926;4.718;2023-02-22T02:16:42;101282.63;;;4.58;100.00
11190;BME280;5651;50.926;4.718;2023-02-22T02:22:26;101287.59;;;4.50;100.00
11190;BME280;5651;50.926;4.718;2023-02-22T02:31:04;101275.22;;;4.38;100.00
11190;BME280;5651;50.926;4.718;2023-02-22T02:33:25;101263.31;;;4.43;100.00
11190;BME280;5651;50.926;4.718;2023-02-22T02:36:01;101258.13;;;4.42;100.00
11190;BME280;5651;50.926;4.718;2023-02-22T02:38:33;101272.91;;;4.48;100.00
11190;BME280;5651;50.926;4.718;2023-02-22T02:41:04;101261.84;;;4.53;100.00
11190;BME280;5651;50.926;4.718;2023-02-22T02:43:46;101259.34;;;4.55;100.00
11190;BME280;5651;50.926;4.718;2023-02-22T02:49:00;101248.09;;;4.53;100.00
11190;BME280;5651;50.926;4.718;2023-02-22T02:51:28;101247.16;;;4.51;100.00
11190;BME280;5651;50.926;4.718;2023-02-22T02:53:56;101243.63;;;4.47;100.00
11190;BME280;5651;50.926;4.718;2023-02-22T02:56:23;101229.84;;;4.45;100.00
11190;BME280;5651;50.926;4.718;2023-02-22T02:58:51;101234.72;;;4.34;100.00
11190;BME280;5651;50.926;4.718;2023-02-22T03:01:27;101229.56;;;4.34;100.00
11190;BME280;5651;50.926;4.718;2023-02-22T03:04:22;101231.28;;;4.35;100.00
11190;BME280;5651;50.926;4.718;2023-02-22T03:12:34;101219.94;;;4.28;100.00
11190;BME280;5651;50.926;4.718;2023-02-22T03:23:53;101209.19;;;4.13;100.00
11190;BME280;5651;50.926;4.718;2023-02-22T03:26:27;101206.59;;;4.11;100.00
11190;BME280;5651;50.926;4.718;2023-02-22T03:28:53;101207.28;;;4.06;100.00
11190;BME280;5651;50.926;4.718;2023-02-22T03:31:24;101199.47;;;4.04;100.00
11190;BME280;5651;50.926;4.718;2023-02-22T03:33:59;101205.53;;;4.05;100.00
11190;BME280;5651;50.926;4.718;2023-02-22T03:36:33;101194.25;;;4.01;100.00
11190;BME280;5651;50.926;4.718;2023-02-22T03:39:06;101194.25;;;4.01;100.00
11190;BME280;5651;50.926;4.718;2023-02-22T03:41:34;101202.69;;;3.95;100.00
11190;BME280;5651;50.926;4.718;2023-02-22T03:44:08;101184.38;;;3.86;100.00
11190;BME280;5651;50.926;4.718;2023-02-22T03:46:38;101193.13;;;3.91;100.00
11190;BME280;5651;50.926;4.718;2023-02-22T03:49:31;101182.81;;;3.91;100.00
11190;BME280;5651;50.926;4.718;2023-02-22T03:51:59;101185.16;;;3.84;100.00
11190;BME280;5651;50.926;4.718;2023-02-22T03:54:25;101177.44;;;3.84;100.00
11190;BME280;5651;50.926;4.718;2023-02-22T03:56:54;101177.50;;;3.85;100.00
11190;BME280;5651;50.926;4.718;2023-02-22T03:59:22;101173.09;;;3.83;100.00
11190;BME280;5651;50.926;4.718;2023-02-22T04:01:55;101164.34;;;3.76;100.00
11190;BME280;5651;50.926;4.718;2023-02-22T04:04:23;101167.59;;;3.70;100.00
11190;BME280;5651;50.926;4.718;2023-02-22T04:06:49;101162.47;;;3.72;100.00
11190;BME280;5651;50.926;4.718;2023-02-22T04:09:16;101160.69;;;3.69;100.00
11190;BME280;5651;50.926;4.718;2023-02-22T04:11:42;101157.16;;;3.65;100.00
11190;BME280;5651;50.926;4.718;2023-02-22T04:14:08;101161.38;;;3.63;100.00
11190;BME280;5651;50.926;4.718;2023-02-22T04:16:34;101162.19;;;3.61;100.00
11190;BME280;5651;50.926;4.718;2023-02-22T04:18:59;101156.03;;;3.56;100.00
11190;BME280;5651;50.926;4.718;2023-02-22T04:21:25;101155.09;;;3.54;100.00
11190;BME280;5651;50.926;4.718;2023-02-22T04:23:51;101147.22;;;3.49;100.00
11190;BME280;5651;50.926;4.718;2023-02-22T04:26:17;101144.00;;;3.56;100.00
11190;BME280;5651;50.926;4.718;2023-02-22T04:28:43;101146.53;;;3.55;100.00
11190;BME280;5651;50.926;4.718;2023-02-22T04:31:09;101141.22;;;3.48;100.00
11190;BME280;5651;50.926;4.718;2023-02-22T04:33:35;101144.72;;;3.51;100.00
11190;BME280;5651;50.926;4.718;2023-02-22T04:36:00;101139.28;;;3.41;100.00
11190;BME280;5651;50.926;4.718;2023-02-22T04:38:26;101133.34;;;3.44;100.00
11190;BME280;5651;50.926;4.718;2023-02-22T04:40:53;101132.56;;;3.46;100.00
11190;BME280;5651;50.926;4.718;2023-02-22T04:43:20;101134.97;;;3.40;100.00
11190;BME280;5651;50.926;4.718;2023-02-22T04:45:46;101132.50;;;3.43;100.00
11190;BME280;5651;50.926;4.718;2023-02-22T04:48:12;101130.75;;;3.42;100.00
11190;BME280;5651;50.926;4.718;2023-02-22T04:50:38;101127.34;;;3.43;100.00
11190;BME280;5651;50.926;4.718;2023-02-22T04:53:05;101123.75;;;3.38;100.00
11190;BME280;5651;50.926;4.718;2023-02-22T04:55:31;101127.25;;;3.40;100.00
11190;BME280;5651;50.926;4.718;2023-02-22T04:57:56;101118.59;;;3.38;100.00
11190;BME280;5651;50.926;4.718;2023-02-22T05:00:22;101111.78;;;3.40;100.00
11190;BME280;5651;50.926;4.718;2023-02-22T05:02:49;101111.88;;;3.43;100.00
11190;BME280;5651;50.926;4.718;2023-02-22T05:05:17;101112.66;;;3.41;100.00
11190;BME280;5651;50.926;4.718;2023-02-22T05:07:44;101104.91;;;3.41;100.00
11190;BME280;5651;50.926;4.718;2023-02-22T05:10:10;101104.06;;;3.40;100.00
11190;BME280;5651;50.926;4.718;2023-02-22T05:12:36;101098.81;;;3.37;100.00
11190;BME280;5651;50.926;4.718;2023-02-22T05:15:04;101104.78;;;3.36;100.00
11190;BME280;5651;50.926;4.718;2023-02-22T05:17:30;101101.38;;;3.37;100.00
11190;BME280;5651;50.926;4.718;2023-02-22T05:19:56;101099.63;;;3.36;100.00
11190;BME280;5651;50.926;4.718;2023-02-22T05:22:21;101094.59;;;3.39;100.00
11190;BME280;5651;50.926;4.718;2023-02-22T05:24:47;101095.38;;;3.37;100.00
11190;BME280;5651;50.926;4.718;2023-02-22T05:27:13;101090.88;;;3.29;100.00
11190;BME280;5651;50.926;4.718;2023-02-22T05:29:38;101090.91;;;3.31;100.00
11190;BME280;5651;50.926;4.718;2023-02-22T05:32:04;101084.78;;;3.27;100.00
11190;BME280;5651;50.926;4.718;2023-02-22T05:34:31;101086.41;;;3.24;100.00
11190;BME280;5651;50.926;4.718;2023-02-22T05:36:57;101082.16;;;3.24;100.00
11190;BME280;5651;50.926;4.718;2023-02-22T05:39:22;101076.09;;;3.24;100.00
11190;BME280;5651;50.926;4.718;2023-02-22T05:41:48;101072.69;;;3.23;100.00
11190;BME280;5651;50.926;4.718;2023-02-22T05:44:14;101068.31;;;3.21;100.00
11190;BME280;5651;50.926;4.718;2023-02-22T05:46:40;101073.41;;;3.19;100.00
11190;BME280;5651;50.926;4.718;2023-02-22T05:49:05;101060.53;;;3.19;100.00
11190;BME280;5651;50.926;4.718;2023-02-22T05:51:31;101075.94;;;3.17;100.00
11190;BME280;5651;50.926;4.718;2023-02-22T05:53:58;101064.81;;;3.19;100.00
11190;BME280;5651;50.926;4.718;2023-02-22T05:56:25;101063.03;;;3.16;100.00
11190;BME280;5651;50.926;4.718;2023-02-22T05:58:51;101062.09;;;3.14;100.00
11190;BME280;5651;50.926;4.718;2023-02-22T06:01:17;101060.31;;;3.11;100.00
11190;BME280;5651;50.926;4.718;2023-02-22T06:03:48;101066.25;;;3.09;100.00
11190;BME280;5651;50.926;4.718;2023-02-22T06:06:15;101067.91;;;3.07;100.00
11190;BME280;5651;50.926;4.718;2023-02-22T06:08:40;101060.03;;;3.02;100.00
11190;BME280;5651;50.926;4.718;2023-02-22T06:11:06;101063.41;;;2.99;100.00
11190;BME280;5651;50.926;4.718;2023-02-22T06:13:35;101055.53;;;2.95;100.00
11190;BME280;5651;50.926;4.718;2023-02-22T06:16:01;101053.75;;;2.92;100.00
11190;BME280;5651;50.926;4.718;2023-02-22T06:18:27;101054.53;;;2.90;100.00
11190;BME280;5651;50.926;4.718;2023-02-22T06:20:56;101045.88;;;2.88;100.00
11190;BME280;5651;50.926;4.718;2023-02-22T06:23:22;101057.03;;;2.88;100.00
11190;BME280;5651;50.926;4.718;2023-02-22T06:25:48;101055.34;;;2.89;100.00
11190;BME280;5651;50.926;4.718;2023-02-22T06:28:15;101057.00;;;2.87;100.00
11190;BME280;5651;50.926;4.718;2023-02-22T06:30:41;101058.75;;;2.88;100.00
11190;BME280;5651;50.926;4.718;2023-02-22T06:33:08;101052.72;;;2.87;100.00
11190;BME280;5651;50.926;4.718;2023-02-22T06:35:34;101033.84;;;2.87;100.00
11190;BME280;5651;50.926;4.718;2023-02-22T06:37:59;101039.81;;;2.85;100.00
11190;BME280;5651;50.926;4.718;2023-02-22T06:40:25;101044.13;;;2.87;100.00
11190;BME280;5651;50.926;4.718;2023-02-22T06:42:54;101033.00;;;2.88;100.00
11190;BME280;5651;50.926;4.718;2023-02-22T06:45:21;101051.13;;;2.91;100.00
11190;BME280;5651;50.926;4.718;2023-02-22T06:47:46;101047.84;;;2.96;100.00
11190;BME280;5651;50.926;4.718;2023-02-22T06:50:20;101039.31;;;2.97;100.00
11190;BME280;5651;50.926;4.718;2023-02-22T06:52:46;101039.34;;;2.99;100.00
11190;BME280;5651;50.926;4.718;2023-02-22T06:55:16;101031.69;;;3.00;100.00
11190;BME280;5651;50.926;4.718;2023-02-22T06:57:43;101033.38;;;3.00;100.00
11190;BME280;5651;50.926;4.718;2023-02-22T07:00:09;101036.75;;;2.99;100.00
11190;BME280;5651;50.926;4.718;2023-02-22T07:02:35;101039.41;;;3.00;100.00
11190;BME280;5651;50.926;4.718;2023-02-22T07:05:01;101041.19;;;3.03;100.00
11190;BME280;5651;50.926;4.718;2023-02-22T07:07:27;101038.63;;;3.03;100.00
11190;BME280;5651;50.926;4.718;2023-02-22T07:09:54;101048.03;;;3.03;100.00
11190;BME280;5651;50.926;4.718;2023-02-22T07:12:20;101067.84;;;3.05;100.00
11190;BME280;5651;50.926;4.718;2023-02-22T07:14:46;101062.00;;;3.11;100.00
11190;BME280;5651;50.926;4.718;2023-02-22T07:17:11;101053.31;;;3.07;100.00
11190;BME280;5651;50.926;4.718;2023-02-22T07:19:37;101049.88;;;3.07;100.00
11190;BME280;5651;50.926;4.718;2023-02-22T07:22:03;101055.03;;;3.07;100.00
11190;BME280;5651;50.926;4.718;2023-02-22T07:24:28;101055.84;;;3.06;100.00
11190;BME280;5651;50.926;4.718;2023-02-22T07:26:54;101055.88;;;3.07;100.00
11190;BME280;5651;50.926;4.718;2023-02-22T07:29:20;101040.44;;;3.07;100.00
11190;BME280;5651;50.926;4.718;2023-02-22T07:31:47;101046.50;;;3.09;100.00
11190;BME280;5651;50.926;4.718;2023-02-22T07:34:13;101042.28;;;3.11;100.00
11190;BME280;5651;50.926;4.718;2023-02-22T07:36:38;101030.38;;;3.15;100.00
11190;BME280;5651;50.926;4.718;2023-02-22T07:39:04;101029.56;;;3.16;100.00
11190;BME280;5651;50.926;4.718;2023-02-22T07:41:33;101033.97;;;3.22;100.00
11190;BME280;5651;50.926;4.718;2023-02-22T07:43:59;101035.84;;;3.26;100.00
11190;BME280;5651;50.926;4.718;2023-02-22T07:46:24;101040.28;;;3.31;100.00
11190;BME280;5651;50.926;4.718;2023-02-22T07:48:50;101044.69;;;3.36;100.00
11190;BME280;5651;50.926;4.718;2023-02-22T07:51:16;101050.00;;;3.42;100.00
11190;BME280;5651;50.926;4.718;2023-02-22T07:53:45;101049.22;;;3.44;100.00
11190;BME280;5651;50.926;4.718;2023-02-22T07:56:11;101048.53;;;3.52;100.00
11190;BME280;5651;50.926;4.718;2023-02-22T07:58:36;101044.41;;;3.57;100.00
11190;BME280;5651;50.926;4.718;2023-02-22T08:01:03;101033.44;;;3.64;100.00
11190;BME280;5651;50.926;4.718;2023-02-22T08:03:33;101028.44;;;3.70;100.00
11190;BME280;5651;50.926;4.718;2023-02-22T08:06:01;101024.41;;;3.80;100.00
11190;BME280;5651;50.926;4.718;2023-02-22T08:08:27;101028.06;;;3.90;100.00
11190;BME280;5651;50.926;4.718;2023-02-22T08:10:53;101026.63;;;4.00;100.00
11190;BME280;5651;50.926;4.718;2023-02-22T08:13:20;101026.91;;;4.10;100.00
11190;BME280;5651;50.926;4.718;2023-02-22T08:15:47;101022.84;;;4.20;100.00
11190;BME280;5651;50.926;4.718;2023-02-22T08:18:16;101025.66;;;4.31;100.00
11190;BME280;5651;50.926;4.718;2023-02-22T08:20:44;101029.41;;;4.44;100.00
11190;BME280;5651;50.926;4.718;2023-02-22T08:23:11;101026.19;;;4.54;100.00
11190;BME280;5651;50.926;4.718;2023-02-22T08:25:37;101023.94;;;4.68;100.00
11190;BME280;5651;50.926;4.718;2023-02-22T08:28:08;101026.78;;;4.81;100.00
11190;BME280;5651;50.926;4.718;2023-02-22T08:30:36;101024.50;;;4.95;100.00
11190;BME280;5651;50.926;4.718;2023-02-22T08:33:02;101021.22;;;5.03;100.00
11190;BME280;5651;50.926;4.718;2023-02-22T08:35:30;101021.50;;;5.16;100.00
11190;BME280;5651;50.926;4.718;2023-02-22T08:37:59;101032.09;;;5.28;100.00
11190;BME280;5651;50.926;4.718;2023-02-22T08:40:29;101022.84;;;5.39;100.00
11190;BME280;5651;50.926;4.718;2023-02-22T08:42:56;101025.59;;;5.49;100.00
11190;BME280;5651;50.926;4.718;2023-02-22T08:45:22;101024.03;;;5.57;100.00
11190;BME280;5651;50.926;4.718;2023-02-22T08:47:48;101022.44;;;5.65;100.00
11190;BME280;5651;50.926;4.718;2023-02-22T08:50:20;101022.69;;;5.78;100.00
11190;BME280;5651;50.926;4.718;2023-02-22T08:52:46;101015.13;;;5.89;100.00
11190;BME280;5651;50.926;4.718;2023-02-22T08:55:12;101014.47;;;6.00;100.00
11190;BME280;5651;50.926;4.718;2023-02-22T08:57:38;101005.25;;;6.15;100.00
11190;BME280;5651;50.926;4.718;2023-02-22T09:00:04;101013.19;;;6.27;100.00
11190;BME280;5651;50.926;4.718;2023-02-22T09:02:30;101013.41;;;6.41;100.00
11190;BME280;5651;50.926;4.718;2023-02-22T09:04:56;101017.94;;;6.56;100.00
11190;BME280;5651;50.926;4.718;2023-02-22T09:07:21;101015.47;;;6.64;100.00
11190;BME280;5651;50.926;4.718;2023-02-22T09:09:49;101009.53;;;6.73;100.00
11190;BME280;5651;50.926;4.718;2023-02-22T09:12:15;101007.09;;;6.82;100.00
11190;BME280;5651;50.926;4.718;2023-02-22T09:14:40;101004.69;;;6.97;100.00
11190;BME280;5651;50.926;4.718;2023-02-22T09:17:07;101004.69;;;6.97;100.00
11190;BME280;5651;50.926;4.718;2023-02-22T09:19:33;101000.56;;;7.12;100.00
11190;BME280;5651;50.926;4.718;2023-02-22T09:21:59;101005.13;;;7.35;100.00
11190;BME280;5651;50.926;4.718;2023-02-22T09:24:26;101000.91;;;7.43;100.00
11190;BME280;5651;50.926;4.718;2023-02-22T09:26:51;101010.53;;;7.56;100.00
11190;BME280;5651;50.926;4.718;2023-02-22T09:29:23;101001.03;;;7.57;100.00
11190;BME280;5651;50.926;4.718;2023-02-22T09:31:51;100996.69;;;7.51;100.00
11190;BME280;5651;50.926;4.718;2023-02-22T09:34:19;100992.44;;;7.63;100.00
11190;BME280;5651;50.926;4.718;2023-02-22T09:36:46;101004.69;;;7.76;100.00
11190;BME280;5651;50.926;4.718;2023-02-22T09:39:16;101006.50;;;7.86;100.00
11190;BME280;5651;50.926;4.718;2023-02-22T09:46:44;101007.25;;;7.74;100.00
11190;BME280;5651;50.926;4.718;2023-02-22T09:49:40;101007.22;;;7.68;100.00
11190;BME280;5651;50.926;4.718;2023-02-22T09:52:24;101014.25;;;7.82;100.00
11190;BME280;5651;50.926;4.718;2023-02-22T09:57:51;101008.47;;;8.14;100.00
11190;BME280;5651;50.926;4.718;2023-02-22T10:00:22;101010.25;;;8.21;100.00
11190;BME280;5651;50.926;4.718;2023-02-22T10:05:29;101010.13;;;8.05;100.00
11190;BME280;5651;50.926;4.718;2023-02-22T10:08:03;101011.00;;;8.04;100.00
11190;BME280;5651;50.926;4.718;2023-02-22T10:10:33;101004.91;;;8.01;100.00
11190;BME280;5651;50.926;4.718;2023-02-22T10:15:54;101005.00;;;8.13;100.00
11190;BME280;5651;50.926;4.718;2023-02-22T10:23:52;101002.47;;;8.21;100.00
11190;BME280;5651;50.926;4.718;2023-02-22T10:26:36;101004.31;;;8.36;100.00
11190;BME280;5651;50.926;4.718;2023-02-22T10:29:12;101007.84;;;8.46;100.00
11190;BME280;5651;50.926;4.718;2023-02-22T10:31:45;101017.44;;;8.54;100.00
11190;BME280;5651;50.926;4.718;2023-02-22T10:34:15;101011.38;;;8.54;100.00
11190;BME280;5651;50.926;4.718;2023-02-22T10:36:47;101009.63;;;8.51;100.00
11190;BME280;5651;50.926;4.718;2023-02-22T10:39:29;101003.63;;;8.59;100.00
11190;BME280;5651;50.926;4.718;2023-02-22T10:41:58;101000.22;;;8.69;100.00
11190;BME280;5651;50.926;4.718;2023-02-22T10:44:34;101007.19;;;8.78;100.00
11190;BME280;5651;50.926;4.718;2023-02-22T10:47:04;101003.78;;;8.88;100.00
11190;BME280;5651;50.926;4.718;2023-02-22T10:49:37;101002.94;;;8.91;100.00
11190;BME280;5651;50.926;4.718;2023-02-22T10:52:13;101002.06;;;8.93;100.00
11190;BME280;5651;50.926;4.718;2023-02-22T10:54:43;100998.59;;;8.96;100.00
11190;BME280;5651;50.926;4.718;2023-02-22T10:57:11;100996.03;;;8.97;100.00
11190;BME280;5651;50.926;4.718;2023-02-22T10:59:40;101005.56;;;9.03;100.00
11190;BME280;5651;50.926;4.718;2023-02-22T11:02:29;100996.06;;;9.11;100.00
11190;BME280;5651;50.926;4.718;2023-02-22T11:04:58;100996.97;;;9.16;100.00
11190;BME280;5651;50.926;4.718;2023-02-22T11:07:33;100990.94;;;9.31;100.00
11190;BME280;5651;50.926;4.718;2023-02-22T11:12:33;100989.28;;;9.49;100.00
11190;BME280;5651;50.926;4.718;2023-02-22T11:17:50;100980.63;;;9.79;100.00
11190;BME280;5651;50.926;4.718;2023-02-22T11:20:23;100976.31;;;9.95;100.00
11190;BME280;5651;50.926;4.718;2023-02-22T11:22:57;100978.06;;;10.07;100.00
11190;BME280;5651;50.926;4.718;2023-02-22T11:25:39;100984.97;;;10.18;100.00
11190;BME280;5651;50.926;4.718;2023-02-22T11:28:27;100978.03;;;10.18;100.00
11190;BME280;5651;50.926;4.718;2023-02-22T11:31:19;100979.75;;;10.24;100.00
11190;BME280;5651;50.926;4.718;2023-02-22T11:33:50;100971.94;;;10.27;100.00
11190;BME280;5651;50.926;4.718;2023-02-22T11:38:55;100984.94;;;10.62;100.00
11190;BME280;5651;50.926;4.718;2023-02-22T11:41:28;100972.69;;;10.83;100.00
11190;BME280;5651;50.926;4.718;2023-02-22T11:46:50;100965.84;;;10.59;100.00
11190;BME280;5651;50.926;4.718;2023-02-22T11:49:16;100977.09;;;10.73;100.00
11190;BME280;5651;50.926;4.718;2023-02-22T11:51:58;100970.09;;;10.80;100.00
11190;BME280;5651;50.926;4.718;2023-02-22T11:54:46;100977.09;;;10.73;100.00
11190;BME280;5651;50.926;4.718;2023-02-22T11:57:50;100975.28;;;10.92;100.00
11190;BME280;5651;50.926;4.718;2023-02-22T12:06:14;100975.28;;;10.97;100.00
11190;BME280;5651;50.926;4.718;2023-02-22T12:09:02;100976.91;;;11.12;100.00
11190;BME280;5651;50.926;4.718;2023-02-22T12:20:07;100969.97;;;11.14;100.00
11190;BME280;5651;50.926;4.718;2023-02-22T12:22:46;100966.50;;;11.15;100.00
11190;BME280;5651;50.926;4.718;2023-02-22T12:25:21;100965.63;;;11.13;100.00
11190;BME280;5651;50.926;4.718;2023-02-22T12:27:52;100973.38;;;11.27;100.00
11190;BME280;5651;50.926;4.718;2023-02-22T12:30:36;100968.13;;;11.33;100.00
11190;BME280;5651;50.926;4.718;2023-02-22T12:33:11;100962.75;;;11.58;100.00
11190;BME280;5651;50.926;4.718;2023-02-22T12:35:41;100959.34;;;11.50;100.00
11190;BME280;5651;50.926;4.718;2023-02-22T12:38:21;100964.66;;;11.34;100.00
11190;BME280;5651;50.926;4.718;2023-02-22T12:41:25;100970.66;;;11.46;100.00
11190;BME280;5651;50.926;4.718;2023-02-22T12:43:56;100969.56;;;11.78;100.00
11190;BME280;5651;50.926;4.718;2023-02-22T12:46:29;100966.03;;;11.85;100.00
11190;BME280;5651;50.926;4.718;2023-02-22T12:49:11;100964.31;;;11.82;100.00
11190;BME280;5651;50.926;4.718;2023-02-22T12:51:52;100966.16;;;11.65;100.00
11190;BME280;5651;50.926;4.718;2023-02-22T12:57:08;100970.47;;;11.75;100.00
11190;BME280;5651;50.926;4.718;2023-02-22T12:59:41;100973.13;;;11.67;100.00
11190;BME280;5651;50.926;4.718;2023-02-22T13:02:31;100972.13;;;11.84;100.00
11190;BME280;5651;50.926;4.718;2023-02-22T13:05:00;100970.28;;;11.98;100.00
11190;BME280;5651;50.926;4.718;2023-02-22T13:07:58;100968.53;;;12.03;100.00
11190;BME280;5651;50.926;4.718;2023-02-22T13:10:37;100967.69;;;11.94;100.00
11190;BME280;5651;50.926;4.718;2023-02-22T13:13:50;100968.56;;;11.99;100.00
11190;BME280;5651;50.926;4.718;2023-02-22T13:16:31;100973.66;;;12.13;100.00
11190;BME280;5651;50.926;4.718;2023-02-22T13:19:24;100968.38;;;12.20;100.00
11190;BME280;5651;50.926;4.718;2023-02-22T13:24:48;100964.09;;;12.13;100.00
11190;BME280;5651;50.926;4.718;2023-02-22T13:27:21;100965.00;;;12.08;100.00
11190;BME280;5651;50.926;4.718;2023-02-22T13:29:55;100957.03;;;12.22;100.00
11190;BME280;5651;50.926;4.718;2023-02-22T13:32:36;100960.50;;;12.22;100.00
11190;BME280;5651;50.926;4.718;2023-02-22T13:40:28;100965.81;;;12.14;100.00
11190;BME280;5651;50.926;4.718;2023-02-22T13:51:51;100973.66;;;12.13;100.00
11190;BME280;5651;50.926;4.718;2023-02-22T13:54:43;100971.22;;;11.89;100.00
11190;BME280;5651;50.926;4.718;2023-02-22T13:57:44;100975.47;;;12.03;100.00
11190;BME280;5651;50.926;4.718;2023-02-22T14:10:55;100985.75;;;12.25;100.00
11190;BME280;5651;50.926;4.718;2023-02-22T14:13:23;100982.38;;;12.13;100.00
11190;BME280;5651;50.926;4.718;2023-02-22T14:18:31;100984.19;;;12.05;100.00
11190;BME280;5651;50.926;4.718;2023-02-22T14:21:15;100987.72;;;11.98;100.00
11190;BME280;5651;50.926;4.718;2023-02-22T14:34:30;100983.22;;;12.14;100.00
11190;BME280;5651;50.926;4.718;2023-02-22T14:37:21;100986.66;;;12.20;100.00
11190;BME280;5651;50.926;4.718;2023-02-22T14:42:21;100985.88;;;12.09;100.00
11190;BME280;5651;50.926;4.718;2023-02-22T14:47:54;100996.34;;;12.11;100.00
11190;BME280;5651;50.926;4.718;2023-02-22T14:55:42;100991.09;;;12.11;100.00
11190;BME280;5651;50.926;4.718;2023-02-22T15:00:45;100985.06;;;12.02;100.00
11190;BME280;5651;50.926;4.718;2023-02-22T15:03:27;100983.38;;;11.92;100.00
11190;BME280;5651;50.926;4.718;2023-02-22T15:06:16;100983.34;;;11.98;100.00
11190;BME280;5651;50.926;4.718;2023-02-22T15:08:45;100985.97;;;11.94;100.00
11190;BME280;5651;50.926;4.718;2023-02-22T15:11:24;100983.41;;;11.87;100.00
11190;BME280;5651;50.926;4.718;2023-02-22T15:13:53;100972.97;;;11.87;100.00
11190;BME280;5651;50.926;4.718;2023-02-22T15:16:20;100975.59;;;11.83;100.00
11190;BME280;5651;50.926;4.718;2023-02-22T15:18:50;100987.84;;;11.78;100.00
11190;BME280;5651;50.926;4.718;2023-02-22T15:21:22;100981.81;;;11.72;100.00
11190;BME280;5651;50.926;4.718;2023-02-22T15:24:02;100987.13;;;11.54;100.00